sensor_id;sensor_type;location;lat;lon;timestamp;temperature;humidity
2571;DHT22;1295;51.130;6.732;2022-09-09T00:01:30;21.60;99.90
2571;DHT22;1295;51.130;6.732;2022-09-09T00:03:57;21.60;99.90
2571;DHT22;1295;51.130;6.732;2022-09-09T00:06:27;21.60;99.90
2571;DHT22;1295;51.130;6.732;2022-09-09T00:09:31;21.60;99.90
2571;DHT22;1295;51.130;6.732;2022-09-09T00:11:43;21.60;99.90
2571;DHT22;1295;51.130;6.732;2022-09-09T00:14:11;21.60;99.90
2571;DHT22;1295;51.130;6.732;2022-09-09T00:16:35;21.60;99.90
2571;DHT22;1295;51.130;6.732;2022-09-09T00:24:32;21.50;99.90
2571;DHT22;1295;51.130;6.732;2022-09-09T00:26:59;21.50;99.90
2571;DHT22;1295;51.130;6.732;2022-09-09T00:29:28;21.50;99.90
2571;DHT22;1295;51.130;6.732;2022-09-09T00:31:55;21.50;99.90
2571;DHT22;1295;51.130;6.732;2022-09-09T00:34:21;21.50;99.90
2571;DHT22;1295;51.130;6.732;2022-09-09T00:36:45;21.50;99.90
2571;DHT22;1295;51.130;6.732;2022-09-09T00:44:37;21.40;99.90
2571;DHT22;1295;51.130;6.732;2022-09-09T00:47:33;21.40;99.90
2571;DHT22;1295;51.130;6.732;2022-09-09T00:50:05;21.40;99.90
2571;DHT22;1295;51.130;6.732;2022-09-09T00:52:36;21.40;99.90
2571;DHT22;1295;51.130;6.732;2022-09-09T00:55:16;21.40;99.90
2571;DHT22;1295;51.130;6.732;2022-09-09T00:57:41;21.40;99.90
2571;DHT22;1295;51.130;6.732;2022-09-09T01:00:16;21.40;99.90
2571;DHT22;1295;51.130;6.732;2022-09-09T01:02:50;21.40;99.90
2571;DHT22;1295;51.130;6.732;2022-09-09T01:05:12;21.40;99.90
2571;DHT22;1295;51.130;6.732;2022-09-09T01:07:36;21.40;99.90
2571;DHT22;1295;51.130;6.732;2022-09-09T01:10:04;21.30;99.90
2571;DHT22;1295;51.130;6.732;2022-09-09T01:12:36;21.30;99.90
2571;DHT22;1295;51.130;6.732;2022-09-09T01:15:07;21.30;99.90
2571;DHT22;1295;51.130;6.732;2022-09-09T01:17:33;21.40;99.90
2571;DHT22;1295;51.130;6.732;2022-09-09T01:20:04;21.30;99.90
2571;DHT22;1295;51.130;6.732;2022-09-09T01:22:38;21.30;99.90
2571;DHT22;1295;51.130;6.732;2022-09-09T01:25:22;21.30;99.90
2571;DHT22;1295;51.130;6.732;2022-09-09T01:27:48;21.30;99.90
2571;DHT22;1295;51.130;6.732;2022-09-09T01:30:13;21.30;99.90
2571;DHT22;1295;51.130;6.732;2022-09-09T01:32:54;21.30;99.90
2571;DHT22;1295;51.130;6.732;2022-09-09T01:35:29;21.20;99.90
2571;DHT22;1295;51.130;6.732;2022-09-09T01:37:49;21.20;99.90
2571;DHT22;1295;51.130;6.732;2022-09-09T01:40:14;21.20;99.90
2571;DHT22;1295;51.130;6.732;2022-09-09T01:42:40;21.20;99.90
2571;DHT22;1295;51.130;6.732;2022-09-09T01:45:06;21.20;99.90
2571;DHT22;1295;51.130;6.732;2022-09-09T01:47:32;21.20;99.90
2571;DHT22;1295;51.130;6.732;2022-09-09T01:49:58;21.20;99.90
2571;DHT22;1295;51.130;6.732;2022-09-09T01:52:24;21.20;99.90
2571;DHT22;1295;51.130;6.732;2022-09-09T01:54:49;21.20;99.90
2571;DHT22;1295;51.130;6.732;2022-09-09T02:00:07;21.10;99.90
2571;DHT22;1295;51.130;6.732;2022-09-09T02:02:38;21.10;99.90
2571;DHT22;1295;51.130;6.732;2022-09-09T02:05:08;21.20;99.90
2571;DHT22;1295;51.130;6.732;2022-09-09T02:07:41;21.10;99.90
2571;DHT22;1295;51.130;6.732;2022-09-09T02:10:17;21.10;99.90
2571;DHT22;1295;51.130;6.732;2022-09-09T02:12:42;21.10;99.90
2571;DHT22;1295;51.130;6.732;2022-09-09T02:15:08;21.10;99.90
2571;DHT22;1295;51.130;6.732;2022-09-09T02:17:34;21.10;99.90
2571;DHT22;1295;51.130;6.732;2022-09-09T02:20:05;21.10;99.90
2571;DHT22;1295;51.130;6.732;2022-09-09T02:22:28;21.10;99.90
2571;DHT22;1295;51.130;6.732;2022-09-09T02:24:54;21.10;99.90
2571;DHT22;1295;51.130;6.732;2022-09-09T02:27:20;21.10;99.90
2571;DHT22;1295;51.130;6.732;2022-09-09T02:29:45;21.10;99.90
2571;DHT22;1295;51.130;6.732;2022-09-09T02:32:13;21.10;99.90
2571;DHT22;1295;51.130;6.732;2022-09-09T02:34:39;21.10;99.90
2571;DHT22;1295;51.130;6.732;2022-09-09T02:37:04;21.00;99.90
2571;DHT22;1295;51.130;6.732;2022-09-09T02:39:29;21.00;99.90
2571;DHT22;1295;51.130;6.732;2022-09-09T02:41:55;21.00;99.90
2571;DHT22;1295;51.130;6.732;2022-09-09T02:44:21;21.00;99.90
2571;DHT22;1295;51.130;6.732;2022-09-09T02:47:25;21.00;99.90
2571;DHT22;1295;51.130;6.732;2022-09-09T02:50:03;21.00;99.90
2571;DHT22;1295;51.130;6.732;2022-09-09T02:52:30;21.00;99.90
2571;DHT22;1295;51.130;6.732;2022-09-09T02:54:54;21.00;99.90
2571;DHT22;1295;51.130;6.732;2022-09-09T02:57:19;20.90;99.90
2571;DHT22;1295;51.130;6.732;2022-09-09T02:59:45;20.90;99.90
2571;DHT22;1295;51.130;6.732;2022-09-09T03:02:11;20.90;99.90
2571;DHT22;1295;51.130;6.732;2022-09-09T03:04:37;21.00;99.90
2571;DHT22;1295;51.130;6.732;2022-09-09T03:07:02;20.90;99.90
2571;DHT22;1295;51.130;6.732;2022-09-09T03:09:33;20.90;99.90
2571;DHT22;1295;51.130;6.732;2022-09-09T03:12:09;20.90;99.90
2571;DHT22;1295;51.130;6.732;2022-09-09T03:14:35;20.90;99.90
2571;DHT22;1295;51.130;6.732;2022-09-09T03:17:00;20.90;99.90
2571;DHT22;1295;51.130;6.732;2022-09-09T03:19:27;20.80;99.90
2571;DHT22;1295;51.130;6.732;2022-09-09T03:21:52;20.90;99.90
2571;DHT22;1295;51.130;6.732;2022-09-09T03:24:19;20.90;99.90
2571;DHT22;1295;51.130;6.732;2022-09-09T03:26:44;20.90;99.90
2571;DHT22;1295;51.130;6.732;2022-09-09T03:29:10;20.80;99.90
2571;DHT22;1295;51.130;6.732;2022-09-09T03:31:35;20.80;99.90
2571;DHT22;1295;51.130;6.732;2022-09-09T03:34:02;20.80;99.90
2571;DHT22;1295;51.130;6.732;2022-09-09T03:36:27;20.80;99.90
2571;DHT22;1295;51.130;6.732;2022-09-09T03:38:53;20.80;99.90
2571;DHT22;1295;51.130;6.732;2022-09-09T03:41:19;20.80;99.90
2571;DHT22;1295;51.130;6.732;2022-09-09T03:43:44;20.80;99.90
2571;DHT22;1295;51.130;6.732;2022-09-09T03:46:10;20.80;99.90
2571;DHT22;1295;51.130;6.732;2022-09-09T03:48:36;20.80;99.90
2571;DHT22;1295;51.130;6.732;2022-09-09T03:51:01;20.80;99.90
2571;DHT22;1295;51.130;6.732;2022-09-09T03:53:27;20.70;99.90
2571;DHT22;1295;51.130;6.732;2022-09-09T03:55:54;20.70;99.90
2571;DHT22;1295;51.130;6.732;2022-09-09T03:58:20;20.80;99.90
2571;DHT22;1295;51.130;6.732;2022-09-09T04:01:00;20.70;99.90
2571;DHT22;1295;51.130;6.732;2022-09-09T04:03:24;20.70;99.90
2571;DHT22;1295;51.130;6.732;2022-09-09T04:05:52;20.70;99.90
2571;DHT22;1295;51.130;6.732;2022-09-09T04:08:18;20.70;99.90
2571;DHT22;1295;51.130;6.732;2022-09-09T04:10:44;20.70;99.90
2571;DHT22;1295;51.130;6.732;2022-09-09T04:13:09;20.70;99.90
2571;DHT22;1295;51.130;6.732;2022-09-09T04:15:34;20.70;99.90
2571;DHT22;1295;51.130;6.732;2022-09-09T04:18:00;20.70;99.90
2571;DHT22;1295;51.130;6.732;2022-09-09T04:20:26;20.70;99.90
2571;DHT22;1295;51.130;6.732;2022-09-09T04:22:51;20.60;99.90
2571;DHT22;1295;51.130;6.732;2022-09-09T04:25:17;20.60;99.90
2571;DHT22;1295;51.130;6.732;2022-09-09T04:27:42;20.60;99.90
2571;DHT22;1295;51.130;6.732;2022-09-09T04:30:09;20.60;99.90
2571;DHT22;1295;51.130;6.732;2022-09-09T04:32:35;20.60;99.90
2571;DHT22;1295;51.130;6.732;2022-09-09T04:35:01;20.60;99.90
2571;DHT22;1295;51.130;6.732;2022-09-09T04:37:26;20.60;99.90
2571;DHT22;1295;51.130;6.732;2022-09-09T04:39:52;20.60;99.90
2571;DHT22;1295;51.130;6.732;2022-09-09T04:42:18;20.60;99.90
2571;DHT22;1295;51.130;6.732;2022-09-09T04:44:43;20.60;99.90
2571;DHT22;1295;51.130;6.732;2022-09-09T04:47:09;20.60;99.90
2571;DHT22;1295;51.130;6.732;2022-09-09T04:49:35;20.50;99.90
2571;DHT22;1295;51.130;6.732;2022-09-09T04:52:01;20.60;99.90
2571;DHT22;1295;51.130;6.732;2022-09-09T04:54:26;20.50;99.90
2571;DHT22;1295;51.130;6.732;2022-09-09T04:56:53;20.50;99.90
2571;DHT22;1295;51.130;6.732;2022-09-09T04:59:18;20.50;99.90
2571;DHT22;1295;51.130;6.732;2022-09-09T05:01:44;20.50;99.90
2571;DHT22;1295;51.130;6.732;2022-09-09T05:04:10;20.50;99.90
2571;DHT22;1295;51.130;6.732;2022-09-09T05:06:36;20.50;99.90
2571;DHT22;1295;51.130;6.732;2022-09-09T05:09:02;20.50;99.90
2571;DHT22;1295;51.130;6.732;2022-09-09T05:11:29;20.50;99.90
2571;DHT22;1295;51.130;6.732;2022-09-09T05:13:59;20.50;99.90
2571;DHT22;1295;51.130;6.732;2022-09-09T05:16:25;20.50;99.90
2571;DHT22;1295;51.130;6.732;2022-09-09T05:18:51;20.50;99.90
2571;DHT22;1295;51.130;6.732;2022-09-09T05:21:18;20.50;99.90
2571;DHT22;1295;51.130;6.732;2022-09-09T05:23:44;20.50;99.90
2571;DHT22;1295;51.130;6.732;2022-09-09T05:26:11;20.50;99.90
2571;DHT22;1295;51.130;6.732;2022-09-09T05:28:34;20.50;99.90
2571;DHT22;1295;51.130;6.732;2022-09-09T05:31:02;20.40;99.90
2571;DHT22;1295;51.130;6.732;2022-09-09T05:33:27;20.40;99.90
2571;DHT22;1295;51.130;6.732;2022-09-09T05:35:58;20.50;99.90
2571;DHT22;1295;51.130;6.732;2022-09-09T05:38:23;20.40;99.90
2571;DHT22;1295;51.130;6.732;2022-09-09T05:40:48;20.40;99.90
2571;DHT22;1295;51.130;6.732;2022-09-09T05:43:15;20.40;99.90
2571;DHT22;1295;51.130;6.732;2022-09-09T05:45:40;20.40;99.90
2571;DHT22;1295;51.130;6.732;2022-09-09T05:48:06;20.40;99.90
2571;DHT22;1295;51.130;6.732;2022-09-09T05:50:32;20.40;99.90
2571;DHT22;1295;51.130;6.732;2022-09-09T05:52:57;20.40;99.90
2571;DHT22;1295;51.130;6.732;2022-09-09T05:55:23;20.40;99.90
2571;DHT22;1295;51.130;6.732;2022-09-09T05:57:49;20.40;99.90
2571;DHT22;1295;51.130;6.732;2022-09-09T06:00:14;20.30;99.90
2571;DHT22;1295;51.130;6.732;2022-09-09T06:02:40;20.40;99.90
2571;DHT22;1295;51.130;6.732;2022-09-09T06:05:06;20.30;99.90
2571;DHT22;1295;51.130;6.732;2022-09-09T06:07:32;20.30;99.90
2571;DHT22;1295;51.130;6.732;2022-09-09T06:09:58;20.30;99.90
2571;DHT22;1295;51.130;6.732;2022-09-09T06:12:23;20.30;99.90
2571;DHT22;1295;51.130;6.732;2022-09-09T06:14:49;20.20;99.90
2571;DHT22;1295;51.130;6.732;2022-09-09T06:17:15;20.10;99.90
2571;DHT22;1295;51.130;6.732;2022-09-09T06:19:40;19.90;99.90
2571;DHT22;1295;51.130;6.732;2022-09-09T06:22:06;19.30;99.90
2571;DHT22;1295;51.130;6.732;2022-09-09T06:24:32;19.40;99.90
2571;DHT22;1295;51.130;6.732;2022-09-09T06:26:57;19.90;99.90
2571;DHT22;1295;51.130;6.732;2022-09-09T06:29:23;20.00;99.90
2571;DHT22;1295;51.130;6.732;2022-09-09T06:31:49;20.10;99.90
2571;DHT22;1295;51.130;6.732;2022-09-09T06:34:14;20.20;99.90
2571;DHT22;1295;51.130;6.732;2022-09-09T06:36:40;20.00;99.90
2571;DHT22;1295;51.130;6.732;2022-09-09T06:39:06;20.20;99.90
2571;DHT22;1295;51.130;6.732;2022-09-09T06:41:32;20.20;99.90
2571;DHT22;1295;51.130;6.732;2022-09-09T06:43:58;19.80;99.90
2571;DHT22;1295;51.130;6.732;2022-09-09T06:46:25;19.80;99.90
2571;DHT22;1295;51.130;6.732;2022-09-09T06:48:51;19.90;99.90
2571;DHT22;1295;51.130;6.732;2022-09-09T06:51:19;19.10;99.90
2571;DHT22;1295;51.130;6.732;2022-09-09T06:53:44;19.00;99.90
2571;DHT22;1295;51.130;6.732;2022-09-09T06:56:27;19.10;99.90
2571;DHT22;1295;51.130;6.732;2022-09-09T06:58:52;18.80;99.90
2571;DHT22;1295;51.130;6.732;2022-09-09T07:01:21;19.30;99.90
2571;DHT22;1295;51.130;6.732;2022-09-09T07:03:47;19.50;99.90
2571;DHT22;1295;51.130;6.732;2022-09-09T07:06:15;19.70;99.90
2571;DHT22;1295;51.130;6.732;2022-09-09T07:08:41;19.80;99.90
2571;DHT22;1295;51.130;6.732;2022-09-09T07:11:07;19.80;99.90
2571;DHT22;1295;51.130;6.732;2022-09-09T07:13:32;19.50;99.90
2571;DHT22;1295;51.130;6.732;2022-09-09T07:16:06;19.40;99.90
2571;DHT22;1295;51.130;6.732;2022-09-09T07:18:31;19.70;99.90
2571;DHT22;1295;51.130;6.732;2022-09-09T07:20:57;19.70;99.90
2571;DHT22;1295;51.130;6.732;2022-09-09T07:23:23;19.80;99.90
2571;DHT22;1295;51.130;6.732;2022-09-09T07:25:49;19.50;99.90
2571;DHT22;1295;51.130;6.732;2022-09-09T07:28:15;19.40;99.90
2571;DHT22;1295;51.130;6.732;2022-09-09T07:30:40;19.40;99.90
2571;DHT22;1295;51.130;6.732;2022-09-09T07:33:06;19.60;99.90
2571;DHT22;1295;51.130;6.732;2022-09-09T07:35:32;19.60;99.90
2571;DHT22;1295;51.130;6.732;2022-09-09T07:38:00;19.30;99.90
2571;DHT22;1295;51.130;6.732;2022-09-09T07:40:24;19.30;99.90
2571;DHT22;1295;51.130;6.732;2022-09-09T07:42:49;19.60;99.90
2571;DHT22;1295;51.130;6.732;2022-09-09T07:45:15;20.00;99.90
2571;DHT22;1295;51.130;6.732;2022-09-09T07:47:42;20.40;99.90
2571;DHT22;1295;51.130;6.732;2022-09-09T07:50:08;20.40;99.90
2571;DHT22;1295;51.130;6.732;2022-09-09T07:52:33;20.60;99.90
2571;DHT22;1295;51.130;6.732;2022-09-09T07:55:04;20.40;99.90
2571;DHT22;1295;51.130;6.732;2022-09-09T07:57:36;20.00;99.90
2571;DHT22;1295;51.130;6.732;2022-09-09T08:00:03;20.00;99.90
2571;DHT22;1295;51.130;6.732;2022-09-09T08:02:27;20.00;99.90
2571;DHT22;1295;51.130;6.732;2022-09-09T08:04:53;20.00;99.90
2571;DHT22;1295;51.130;6.732;2022-09-09T08:07:19;20.00;99.90
2571;DHT22;1295;51.130;6.732;2022-09-09T08:09:44;19.90;99.90
2571;DHT22;1295;51.130;6.732;2022-09-09T08:12:10;20.40;99.90
2571;DHT22;1295;51.130;6.732;2022-09-09T08:14:35;20.30;99.90
2571;DHT22;1295;51.130;6.732;2022-09-09T08:17:01;20.40;99.90
2571;DHT22;1295;51.130;6.732;2022-09-09T08:19:27;20.60;99.90
2571;DHT22;1295;51.130;6.732;2022-09-09T08:21:52;20.50;99.90
2571;DHT22;1295;51.130;6.732;2022-09-09T08:24:18;20.30;99.90
2571;DHT22;1295;51.130;6.732;2022-09-09T08:26:44;20.30;99.90
2571;DHT22;1295;51.130;6.732;2022-09-09T08:29:10;20.10;99.90
2571;DHT22;1295;51.130;6.732;2022-09-09T08:31:37;20.00;99.90
2571;DHT22;1295;51.130;6.732;2022-09-09T08:34:02;19.90;99.90
2571;DHT22;1295;51.130;6.732;2022-09-09T08:36:28;20.00;99.90
2571;DHT22;1295;51.130;6.732;2022-09-09T08:38:54;19.80;99.90
2571;DHT22;1295;51.130;6.732;2022-09-09T08:41:39;20.10;99.90
2571;DHT22;1295;51.130;6.732;2022-09-09T08:44:07;20.10;99.90
2571;DHT22;1295;51.130;6.732;2022-09-09T08:46:36;20.10;99.90
2571;DHT22;1295;51.130;6.732;2022-09-09T08:49:06;20.10;99.90
2571;DHT22;1295;51.130;6.732;2022-09-09T08:51:34;19.90;99.90
2571;DHT22;1295;51.130;6.732;2022-09-09T08:54:00;19.90;99.90
2571;DHT22;1295;51.130;6.732;2022-09-09T08:56:25;20.00;99.90
2571;DHT22;1295;51.130;6.732;2022-09-09T08:58:52;20.00;99.90
2571;DHT22;1295;51.130;6.732;2022-09-09T09:01:28;19.90;99.90
2571;DHT22;1295;51.130;6.732;2022-09-09T09:04:00;19.90;99.90
2571;DHT22;1295;51.130;6.732;2022-09-09T09:09:30;19.90;99.90
2571;DHT22;1295;51.130;6.732;2022-09-09T09:11:54;19.90;99.90
2571;DHT22;1295;51.130;6.732;2022-09-09T09:14:22;20.10;99.90
2571;DHT22;1295;51.130;6.732;2022-09-09T09:16:55;19.90;99.90
2571;DHT22;1295;51.130;6.732;2022-09-09T09:19:19;19.70;99.90
2571;DHT22;1295;51.130;6.732;2022-09-09T09:21:48;19.80;99.90
2571;DHT22;1295;51.130;6.732;2022-09-09T09:24:27;20.00;99.90
2571;DHT22;1295;51.130;6.732;2022-09-09T09:26:51;20.00;99.90
2571;DHT22;1295;51.130;6.732;2022-09-09T09:29:17;20.00;99.90
2571;DHT22;1295;51.130;6.732;2022-09-09T09:31:44;20.10;99.90
2571;DHT22;1295;51.130;6.732;2022-09-09T09:34:09;20.20;99.90
2571;DHT22;1295;51.130;6.732;2022-09-09T09:39:06;20.50;99.90
2571;DHT22;1295;51.130;6.732;2022-09-09T09:41:36;20.70;99.90
2571;DHT22;1295;51.130;6.732;2022-09-09T09:44:01;21.20;99.90
2571;DHT22;1295;51.130;6.732;2022-09-09T09:46:26;21.50;99.90
2571;DHT22;1295;51.130;6.732;2022-09-09T09:49:02;21.70;99.90
2571;DHT22;1295;51.130;6.732;2022-09-09T09:51:27;21.50;99.90
2571;DHT22;1295;51.130;6.732;2022-09-09T09:53:52;21.40;99.90
2571;DHT22;1295;51.130;6.732;2022-09-09T09:56:18;21.40;99.90
2571;DHT22;1295;51.130;6.732;2022-09-09T09:58:51;21.30;99.90
2571;DHT22;1295;51.130;6.732;2022-09-09T10:01:24;21.50;99.90
2571;DHT22;1295;51.130;6.732;2022-09-09T10:03:50;21.30;99.90
2571;DHT22;1295;51.130;6.732;2022-09-09T10:06:15;21.10;99.90
2571;DHT22;1295;51.130;6.732;2022-09-09T10:08:44;20.90;99.90
2571;DHT22;1295;51.130;6.732;2022-09-09T10:11:32;21.20;99.90
2571;DHT22;1295;51.130;6.732;2022-09-09T10:14:17;21.20;99.90
2571;DHT22;1295;51.130;6.732;2022-09-09T10:19:31;21.10;99.30
2571;DHT22;1295;51.130;6.732;2022-09-09T10:22:05;20.90;99.70
2571;DHT22;1295;51.130;6.732;2022-09-09T10:24:50;21.10;99.90
2571;DHT22;1295;51.130;6.732;2022-09-09T10:27:27;21.10;99.90
2571;DHT22;1295;51.130;6.732;2022-09-09T10:30:12;20.90;99.90
2571;DHT22;1295;51.130;6.732;2022-09-09T10:34:02;20.60;99.90
2571;DHT22;1295;51.130;6.732;2022-09-09T10:35:36;20.70;99.90
2571;DHT22;1295;51.130;6.732;2022-09-09T10:38:18;20.60;99.90
2571;DHT22;1295;51.130;6.732;2022-09-09T10:41:02;20.60;99.90
2571;DHT22;1295;51.130;6.732;2022-09-09T10:43:46;20.60;99.90
2571;DHT22;1295;51.130;6.732;2022-09-09T10:47:14;20.60;99.80
2571;DHT22;1295;51.130;6.732;2022-09-09T10:49:07;20.70;99.80
2571;DHT22;1295;51.130;6.732;2022-09-09T10:51:42;20.60;99.90
2571;DHT22;1295;51.130;6.732;2022-09-09T10:54:25;20.60;99.90
2571;DHT22;1295;51.130;6.732;2022-09-09T10:56:51;20.50;99.90
2571;DHT22;1295;51.130;6.732;2022-09-09T10:59:17;20.60;99.90
2571;DHT22;1295;51.130;6.732;2022-09-09T11:04:25;20.60;99.90
2571;DHT22;1295;51.130;6.732;2022-09-09T11:06:56;20.70;99.90
2571;DHT22;1295;51.130;6.732;2022-09-09T11:09:27;20.60;99.90
2571;DHT22;1295;51.130;6.732;2022-09-09T11:11:53;20.40;99.90
2571;DHT22;1295;51.130;6.732;2022-09-09T11:14:26;20.40;99.90
2571;DHT22;1295;51.130;6.732;2022-09-09T11:16:54;20.00;99.90
2571;DHT22;1295;51.130;6.732;2022-09-09T11:19:28;20.00;99.90
2571;DHT22;1295;51.130;6.732;2022-09-09T11:21:52;20.10;99.90
2571;DHT22;1295;51.130;6.732;2022-09-09T11:24:22;20.20;99.90
2571;DHT22;1295;51.130;6.732;2022-09-09T11:26:51;20.10;99.90
2571;DHT22;1295;51.130;6.732;2022-09-09T11:29:40;20.30;99.90
2571;DHT22;1295;51.130;6.732;2022-09-09T11:32:10;20.20;99.90
2571;DHT22;1295;51.130;6.732;2022-09-09T11:34:43;20.30;99.90
2571;DHT22;1295;51.130;6.732;2022-09-09T11:37:13;20.40;99.90
2571;DHT22;1295;51.130;6.732;2022-09-09T11:39:37;20.40;99.90
2571;DHT22;1295;51.130;6.732;2022-09-09T11:42:21;20.50;99.90
2571;DHT22;1295;51.130;6.732;2022-09-09T11:44:45;20.30;99.90
2571;DHT22;1295;51.130;6.732;2022-09-09T11:47:21;20.30;99.90
2571;DHT22;1295;51.130;6.732;2022-09-09T11:49:45;20.30;99.90
2571;DHT22;1295;51.130;6.732;2022-09-09T11:54:46;20.10;99.90
2571;DHT22;1295;51.130;6.732;2022-09-09T11:57:32;20.20;99.90
2571;DHT22;1295;51.130;6.732;2022-09-09T11:59:57;20.40;99.90
2571;DHT22;1295;51.130;6.732;2022-09-09T12:02:24;20.40;99.90
2571;DHT22;1295;51.130;6.732;2022-09-09T12:05:05;20.50;99.90
2571;DHT22;1295;51.130;6.732;2022-09-09T12:07:37;20.70;99.90
2571;DHT22;1295;51.130;6.732;2022-09-09T12:10:18;20.80;99.90
2571;DHT22;1295;51.130;6.732;2022-09-09T12:12:32;20.90;99.90
2571;DHT22;1295;51.130;6.732;2022-09-09T12:14:59;20.90;99.90
2571;DHT22;1295;51.130;6.732;2022-09-09T12:17:24;20.90;99.90
2571;DHT22;1295;51.130;6.732;2022-09-09T12:19:59;20.90;99.90
2571;DHT22;1295;51.130;6.732;2022-09-09T12:22:20;20.80;99.90
2571;DHT22;1295;51.130;6.732;2022-09-09T12:25:06;20.80;99.90
2571;DHT22;1295;51.130;6.732;2022-09-09T12:27:30;20.80;99.90
2571;DHT22;1295;51.130;6.732;2022-09-09T12:32:25;20.90;99.90
2571;DHT22;1295;51.130;6.732;2022-09-09T12:34:53;20.90;99.90
2571;DHT22;1295;51.130;6.732;2022-09-09T12:37:54;20.90;99.90
2571;DHT22;1295;51.130;6.732;2022-09-09T12:40:05;20.80;99.90
2571;DHT22;1295;51.130;6.732;2022-09-09T12:42:31;20.90;99.90
2571;DHT22;1295;51.130;6.732;2022-09-09T12:44:57;20.90;99.90
2571;DHT22;1295;51.130;6.732;2022-09-09T12:47:25;20.80;99.90
2571;DHT22;1295;51.130;6.732;2022-09-09T12:49:48;20.70;99.90
2571;DHT22;1295;51.130;6.732;2022-09-09T12:52:31;20.50;99.90
2571;DHT22;1295;51.130;6.732;2022-09-09T12:54:55;20.10;99.90
2571;DHT22;1295;51.130;6.732;2022-09-09T12:57:22;20.20;99.90
2571;DHT22;1295;51.130;6.732;2022-09-09T12:59:47;20.50;99.90
2571;DHT22;1295;51.130;6.732;2022-09-09T13:02:19;20.50;99.90
2571;DHT22;1295;51.130;6.732;2022-09-09T13:04:43;20.70;99.90
2571;DHT22;1295;51.130;6.732;2022-09-09T13:07:10;20.90;99.90
2571;DHT22;1295;51.130;6.732;2022-09-09T13:09:35;20.80;99.90
2571;DHT22;1295;51.130;6.732;2022-09-09T13:12:01;20.90;99.90
2571;DHT22;1295;51.130;6.732;2022-09-09T13:14:28;20.90;99.90
2571;DHT22;1295;51.130;6.732;2022-09-09T13:16:55;21.10;99.90
2571;DHT22;1295;51.130;6.732;2022-09-09T13:19:20;21.10;99.90
2571;DHT22;1295;51.130;6.732;2022-09-09T13:21:45;21.10;99.90
2571;DHT22;1295;51.130;6.732;2022-09-09T13:24:34;21.00;99.90
2571;DHT22;1295;51.130;6.732;2022-09-09T13:27:03;21.10;99.90
2571;DHT22;1295;51.130;6.732;2022-09-09T13:29:32;21.00;99.90
2571;DHT22;1295;51.130;6.732;2022-09-09T13:32:05;21.10;99.90
2571;DHT22;1295;51.130;6.732;2022-09-09T13:34:31;21.20;99.90
2571;DHT22;1295;51.130;6.732;2022-09-09T13:37:00;21.10;99.90
2571;DHT22;1295;51.130;6.732;2022-09-09T13:39:24;21.10;99.90
2571;DHT22;1295;51.130;6.732;2022-09-09T13:41:50;21.10;99.90
2571;DHT22;1295;51.130;6.732;2022-09-09T13:44:18;20.90;99.90
2571;DHT22;1295;51.130;6.732;2022-09-09T13:46:42;21.00;99.90
2571;DHT22;1295;51.130;6.732;2022-09-09T13:49:23;20.90;99.90
2571;DHT22;1295;51.130;6.732;2022-09-09T13:51:50;20.90;99.90
2571;DHT22;1295;51.130;6.732;2022-09-09T13:54:17;20.90;99.90
2571;DHT22;1295;51.130;6.732;2022-09-09T13:56:42;20.90;99.90
2571;DHT22;1295;51.130;6.732;2022-09-09T13:59:10;20.90;99.90
2571;DHT22;1295;51.130;6.732;2022-09-09T14:01:35;20.90;99.90
2571;DHT22;1295;51.130;6.732;2022-09-09T14:04:01;21.00;99.90
2571;DHT22;1295;51.130;6.732;2022-09-09T14:06:26;21.10;99.90
2571;DHT22;1295;51.130;6.732;2022-09-09T14:08:53;21.20;99.90
2571;DHT22;1295;51.130;6.732;2022-09-09T14:11:18;21.20;99.90
2571;DHT22;1295;51.130;6.732;2022-09-09T14:13:45;21.30;99.90
2571;DHT22;1295;51.130;6.732;2022-09-09T14:16:10;21.20;99.90
2571;DHT22;1295;51.130;6.732;2022-09-09T14:18:36;21.20;99.90
2571;DHT22;1295;51.130;6.732;2022-09-09T14:21:02;21.20;99.90
2571;DHT22;1295;51.130;6.732;2022-09-09T14:23:27;21.10;99.90
2571;DHT22;1295;51.130;6.732;2022-09-09T14:25:53;21.10;99.90
2571;DHT22;1295;51.130;6.732;2022-09-09T14:28:18;21.00;99.90
2571;DHT22;1295;51.130;6.732;2022-09-09T14:30:44;21.10;99.90
2571;DHT22;1295;51.130;6.732;2022-09-09T14:33:11;21.00;99.90
2571;DHT22;1295;51.130;6.732;2022-09-09T14:35:35;21.00;99.90
2571;DHT22;1295;51.130;6.732;2022-09-09T14:38:03;20.80;99.90
2571;DHT22;1295;51.130;6.732;2022-09-09T14:40:28;20.80;99.90
2571;DHT22;1295;51.130;6.732;2022-09-09T14:42:54;20.70;99.90
2571;DHT22;1295;51.130;6.732;2022-09-09T14:45:20;20.60;99.90
2571;DHT22;1295;51.130;6.732;2022-09-09T14:47:45;20.70;99.90
2571;DHT22;1295;51.130;6.732;2022-09-09T14:50:12;20.70;99.90
2571;DHT22;1295;51.130;6.732;2022-09-09T14:52:37;20.60;99.90
2571;DHT22;1295;51.130;6.732;2022-09-09T14:55:04;20.30;99.90
2571;DHT22;1295;51.130;6.732;2022-09-09T14:57:30;20.60;99.90
2571;DHT22;1295;51.130;6.732;2022-09-09T15:00:03;20.40;99.90
2571;DHT22;1295;51.130;6.732;2022-09-09T15:02:28;20.40;99.90
2571;DHT22;1295;51.130;6.732;2022-09-09T15:04:53;20.40;99.90
2571;DHT22;1295;51.130;6.732;2022-09-09T15:07:19;20.60;99.90
2571;DHT22;1295;51.130;6.732;2022-09-09T15:09:44;20.80;99.90
2571;DHT22;1295;51.130;6.732;2022-09-09T15:12:10;20.80;99.90
2571;DHT22;1295;51.130;6.732;2022-09-09T15:14:36;20.80;99.90
2571;DHT22;1295;51.130;6.732;2022-09-09T15:17:01;20.80;99.90
2571;DHT22;1295;51.130;6.732;2022-09-09T15:19:28;20.80;99.90
2571;DHT22;1295;51.130;6.732;2022-09-09T15:21:54;20.60;99.90
2571;DHT22;1295;51.130;6.732;2022-09-09T15:24:20;20.60;99.90
2571;DHT22;1295;51.130;6.732;2022-09-09T15:26:46;20.70;99.90
2571;DHT22;1295;51.130;6.732;2022-09-09T15:29:11;20.70;99.90
2571;DHT22;1295;51.130;6.732;2022-09-09T15:31:37;20.80;99.90
2571;DHT22;1295;51.130;6.732;2022-09-09T15:34:03;20.80;99.90
2571;DHT22;1295;51.130;6.732;2022-09-09T15:36:31;20.70;99.90
2571;DHT22;1295;51.130;6.732;2022-09-09T15:38:57;20.80;99.90
2571;DHT22;1295;51.130;6.732;2022-09-09T15:41:23;20.70;99.90
2571;DHT22;1295;51.130;6.732;2022-09-09T15:43:49;20.80;99.90
2571;DHT22;1295;51.130;6.732;2022-09-09T15:46:28;20.80;99.90
2571;DHT22;1295;51.130;6.732;2022-09-09T15:48:54;20.70;99.90
2571;DHT22;1295;51.130;6.732;2022-09-09T15:51:19;20.80;99.90
2571;DHT22;1295;51.130;6.732;2022-09-09T15:53:45;20.80;99.90
2571;DHT22;1295;51.130;6.732;2022-09-09T15:56:10;20.80;99.90
2571;DHT22;1295;51.130;6.732;2022-09-09T15:58:36;20.80;99.90
2571;DHT22;1295;51.130;6.732;2022-09-09T16:01:02;20.80;99.90
2571;DHT22;1295;51.130;6.732;2022-09-09T16:03:27;20.80;99.90
2571;DHT22;1295;51.130;6.732;2022-09-09T16:05:53;20.80;99.90
2571;DHT22;1295;51.130;6.732;2022-09-09T16:08:19;20.80;99.90
2571;DHT22;1295;51.130;6.732;2022-09-09T16:10:45;20.70;99.90
2571;DHT22;1295;51.130;6.732;2022-09-09T16:13:11;20.80;99.90
2571;DHT22;1295;51.130;6.732;2022-09-09T16:15:36;20.80;99.90
2571;DHT22;1295;51.130;6.732;2022-09-09T16:18:03;20.20;99.90
2571;DHT22;1295;51.130;6.732;2022-09-09T16:20:29;19.90;99.90
2571;DHT22;1295;51.130;6.732;2022-09-09T16:22:55;19.90;99.90
2571;DHT22;1295;51.130;6.732;2022-09-09T16:25:20;19.90;99.90
2571;DHT22;1295;51.130;6.732;2022-09-09T16:27:46;19.70;99.90
2571;DHT22;1295;51.130;6.732;2022-09-09T16:30:12;19.70;99.90
2571;DHT22;1295;51.130;6.732;2022-09-09T16:32:38;19.80;99.90
2571;DHT22;1295;51.130;6.732;2022-09-09T16:35:05;20.30;99.90
2571;DHT22;1295;51.130;6.732;2022-09-09T16:37:31;20.20;99.90